createdAt,value
2019-01-05T00:00:34.864Z,75.96
2019-01-05T00:01:40.006Z,75.99
2019-01-05T00:02:56.921Z,75.81
2019-01-05T00:04:14.053Z,75.76
2019-01-05T00:05:27.989Z,75.51
2019-01-05T00:06:49.086Z,75.47
2019-01-05T00:08:10.264Z,75.66
2019-01-05T00:09:31.869Z,76.15
2019-01-05T00:10:51.898Z,76.55
2019-01-05T00:12:02.917Z,76.67
2019-01-05T00:13:13.836Z,76.65
2019-01-05T00:14:21.898Z,76.68
2019-01-05T00:15:33.438Z,76.77
2019-01-05T00:16:54.629Z,76.67
2019-01-05T00:18:16.181Z,76.49
2019-01-05T00:19:21.987Z,76.35
2019-01-05T00:20:43.697Z,76.05
2019-01-05T00:22:05.180Z,76.13
2019-01-05T00:23:19.678Z,75.95
2019-01-05T00:24:27.410Z,75.47
2019-01-05T00:25:35.566Z,75.95
2019-01-05T00:26:59.163Z,76.62
2019-01-05T00:28:06.943Z,76.67
2019-01-05T00:29:21.240Z,76.13
2019-01-05T00:30:41.510Z,76.39
2019-01-05T00:32:37.219Z,76.40
2019-01-05T00:33:54.304Z,76.48
2019-01-05T00:35:09.667Z,75.92
2019-01-05T00:36:15.586Z,75.74
2019-01-05T00:37:21.015Z,75.49
2019-01-05T00:38:42.812Z,75.52
2019-01-05T00:39:50.930Z,75.67
2019-01-05T00:41:06.579Z,75.65
2019-01-05T00:42:27.310Z,75.97
2019-01-05T00:43:44.389Z,76.30
2019-01-05T00:44:52.367Z,76.34
2019-01-05T00:46:16.763Z,76.43
2019-01-05T00:47:22.078Z,76.66
2019-01-05T00:48:31.377Z,76.45
2019-01-05T00:49:50.067Z,76.92
2019-01-05T00:50:56.813Z,77.04
2019-01-05T00:52:19.133Z,77.36
2019-01-05T00:53:33.253Z,77.45
2019-01-05T00:54:39.072Z,77.38
2019-01-05T00:55:47.397Z,77.32
2019-01-05T00:56:53.212Z,77.48
2019-01-05T00:58:17.147Z,77.39
2019-01-05T00:59:23.260Z,77.47
2019-01-05T01:00:44.504Z,77.28
2019-01-05T01:02:04.723Z,76.88
2019-01-05T01:03:09.881Z,76.83
2019-01-05T01:04:20.919Z,77.33
2019-01-05T01:05:41.020Z,77.53
2019-01-05T01:06:54.687Z,77.95
2019-01-05T01:08:17.979Z,77.92
2019-01-05T01:09:32.002Z,77.80
2019-01-05T01:10:54.810Z,78.11
2019-01-05T01:12:08.746Z,78.38
2019-01-05T01:13:22.817Z,78.38
2019-01-05T01:14:36.780Z,78.58
2019-01-05T01:15:57.751Z,78.59
2019-01-05T01:17:08.593Z,79.01
2019-01-05T01:18:29.626Z,79.19
2019-01-05T01:19:46.327Z,79.09
2019-01-05T01:21:04.417Z,79.06
2019-01-05T01:22:25.652Z,78.81
2019-01-05T01:23:39.813Z,79.21
2019-01-05T01:25:01.044Z,79.50
2019-01-05T01:26:23.217Z,79.69
2019-01-05T01:27:37.165Z,79.50
2019-01-05T01:28:42.377Z,79.60
2019-01-05T01:29:53.779Z,79.58
2019-01-05T01:31:01.678Z,80.10
2019-01-05T01:32:06.824Z,80.32
2019-01-05T01:33:12.925Z,80.19
2019-01-05T01:34:18.241Z,80.36
2019-01-05T01:35:39.505Z,80.35
2019-01-05T01:36:44.640Z,80.02
2019-01-05T01:38:23.975Z,80.01
2019-01-05T01:39:29.375Z,80.04
2019-01-05T01:40:43.365Z,80.30
2019-01-05T01:41:57.481Z,80.51
2019-01-05T01:43:08.909Z,80.70
2019-01-05T01:44:30.318Z,80.76
2019-01-05T01:45:47.609Z,80.88
2019-01-05T01:46:56.735Z,80.89
2019-01-05T01:48:05.969Z,80.80
2019-01-05T01:49:11.039Z,80.49
2019-01-05T01:50:33.382Z,80.37
2019-01-05T01:51:41.411Z,80.16
2019-01-05T01:52:55.429Z,80.18
2019-01-05T01:54:09.700Z,80.47
2019-01-05T01:55:30.730Z,80.39
2019-01-05T01:56:41.593Z,80.00
2019-01-05T01:57:53.712Z,79.45
2019-01-05T01:59:03.779Z,79.56
2019-01-05T02:00:20.155Z,79.67
2019-01-05T02:01:27.941Z,80.12
2019-01-05T02:02:38.950Z,79.98
2019-01-05T02:03:46.928Z,79.82
2019-01-05T02:05:04.711Z,79.55
2019-01-05T02:06:14.537Z,79.75
2019-01-05T02:07:22.538Z,79.59
2019-01-05T02:08:36.403Z,79.46
2019-01-05T02:09:55.131Z,79.21
2019-01-05T02:11:18.636Z,79.33
2019-01-05T02:12:29.395Z,79.03
2019-01-05T02:13:36.328Z,79.10
2019-01-05T02:14:50.283Z,78.64
2019-01-05T02:15:58.403Z,79.04
2019-01-05T02:17:18.237Z,79.35
2019-01-05T02:18:41.022Z,79.45
2019-01-05T02:20:05.136Z,79.43
2019-01-05T02:21:24.724Z,79.33
2019-01-05T02:23:05.466Z,79.34
2019-01-05T02:24:43.960Z,79.57
2019-01-05T02:25:57.587Z,79.45
2019-01-05T02:27:11.304Z,79.26
2019-01-05T02:28:39.651Z,79.30
2019-01-05T02:30:05.084Z,79.11
2019-01-05T02:31:33.680Z,78.91
2019-01-05T02:33:06.547Z,79.05
2019-01-05T02:34:33.522Z,79.08
2019-01-05T02:36:20.033Z,79.03
2019-01-05T02:37:57.789Z,79.07
2019-01-05T02:39:23.273Z,79.48
2019-01-05T02:40:58.442Z,79.19
2019-01-05T02:42:25.812Z,79.27
2019-01-05T02:43:45.581Z,79.09
2019-01-05T02:45:02.376Z,78.98
2019-01-05T02:46:19.249Z,79.17
2019-01-05T02:47:51.273Z,79.28
2019-01-05T02:49:19.636Z,78.95
2019-01-05T02:51:00.350Z,78.96
2019-01-05T02:52:28.976Z,79.26
2019-01-05T02:53:52.131Z,79.01
2019-01-05T02:55:32.740Z,78.89
2019-01-05T02:56:49.482Z,78.59
2019-01-05T02:58:28.466Z,78.51
2019-01-05T02:59:54.147Z,78.63
2019-01-05T03:01:22.316Z,79.09
2019-01-05T03:02:54.261Z,78.90
2019-01-05T03:04:32.074Z,78.85
2019-01-05T03:06:15.980Z,78.62
2019-01-05T03:08:04.014Z,78.66
2019-01-05T03:09:40.032Z,78.63
2019-01-05T03:11:11.717Z,78.47
2019-01-05T03:12:34.503Z,78.20
2019-01-05T03:14:04.662Z,78.08
2019-01-05T03:15:30.443Z,78.21
2019-01-05T03:17:00.561Z,77.97
2019-01-05T03:18:32.482Z,78.01
2019-01-05T03:20:02.427Z,78.14
2019-01-05T03:21:19.040Z,77.82
2019-01-05T03:22:38.405Z,77.77
2019-01-05T03:24:00.848Z,77.75
2019-01-05T03:25:47.637Z,77.65
2019-01-05T03:27:29.967Z,77.78
2019-01-05T03:28:55.497Z,78.38
2019-01-05T03:30:12.101Z,78.66
2019-01-05T03:31:48.168Z,78.92
2019-01-05T03:33:27.593Z,78.65
2019-01-05T03:35:05.634Z,78.35
2019-01-05T03:36:31.526Z,78.22
2019-01-05T03:38:06.245Z,78.58
2019-01-05T03:39:57.400Z,78.60
2019-01-05T03:41:23.031Z,78.12
2019-01-05T03:43:03.478Z,77.92
2019-01-05T03:44:40.395Z,77.64
2019-01-05T03:45:56.292Z,77.84
2019-01-05T03:47:20.204Z,78.01
2019-01-05T03:48:54.971Z,78.22
2019-01-05T03:50:20.572Z,78.39
2019-01-05T03:51:45.970Z,78.26
2019-01-05T03:53:41.634Z,78.30
2019-01-05T03:54:52.566Z,77.93
2019-01-05T03:56:22.973Z,78.20
2019-01-05T03:57:49.046Z,78.38
2019-01-05T03:59:32.837Z,78.48
2019-01-05T04:00:59.650Z,78.44
2019-01-05T04:02:25.531Z,78.09
2019-01-05T04:03:55.572Z,78.28
2019-01-05T04:05:28.849Z,78.44
2019-01-05T04:06:57.605Z,78.51
2019-01-05T04:08:53.442Z,78.74
2019-01-05T04:10:26.299Z,78.72
2019-01-05T04:12:06.978Z,78.50
2019-01-05T04:13:15.126Z,78.57
2019-01-05T04:14:31.559Z,78.66
2019-01-05T04:16:09.528Z,78.46
2019-01-05T04:17:50.267Z,78.57
2019-01-05T04:19:14.115Z,78.88
2019-01-05T04:20:25.229Z,79.00
2019-01-05T04:22:13.302Z,78.83
2019-01-05T04:24:00.016Z,78.70
2019-01-05T04:25:59.904Z,78.65
2019-01-05T04:27:31.734Z,78.65
2019-01-05T04:29:12.416Z,79.07
2019-01-05T04:30:53.022Z,79.24
2019-01-05T04:32:18.955Z,79.09
2019-01-05T04:33:59.484Z,79.12
2019-01-05T04:35:39.570Z,78.97
2019-01-05T04:37:06.599Z,78.68
2019-01-05T04:38:47.223Z,78.75
2019-01-05T04:40:29.385Z,79.05
2019-01-05T04:42:11.591Z,79.30
2019-01-05T04:43:59.994Z,79.17
2019-01-05T04:45:52.415Z,79.30
2019-01-05T04:47:28.657Z,78.91
2019-01-05T04:48:48.168Z,79.02
2019-01-05T04:50:14.062Z,79.19
2019-01-05T04:51:50.293Z,79.32
2019-01-05T04:53:34.136Z,79.39
2019-01-05T04:54:59.748Z,78.77
2019-01-05T04:56:29.004Z,78.98
2019-01-05T04:57:45.105Z,79.12
2019-01-05T04:59:18.454Z,79.14
2019-01-05T05:01:07.327Z,79.10
2019-01-05T05:02:47.357Z,79.12
2019-01-05T05:04:26.659Z,78.93
2019-01-05T05:06:13.253Z,78.85
2019-01-05T05:07:38.985Z,78.65
2019-01-05T05:09:07.591Z,78.87
2019-01-05T05:10:41.574Z,78.92
2019-01-05T05:12:04.560Z,79.19
2019-01-05T05:13:52.569Z,78.89
2019-01-05T05:15:25.142Z,78.97
2019-01-05T05:17:05.791Z,79.00
2019-01-05T05:18:46.735Z,79.29
2019-01-05T05:20:25.268Z,79.25
2019-01-05T05:22:03.722Z,79.20
2019-01-05T05:23:42.848Z,79.56
2019-01-05T05:25:02.155Z,79.51
2019-01-05T05:26:24.812Z,79.41
2019-01-05T05:27:38.573Z,79.57
2019-01-05T05:29:11.648Z,79.37
2019-01-05T05:30:40.520Z,79.39
2019-01-05T05:32:06.387Z,79.70
2019-01-05T05:34:00.535Z,79.65
2019-01-05T05:35:20.326Z,79.71
2019-01-05T05:36:56.514Z,79.88
2019-01-05T05:38:12.926Z,80.08
2019-01-05T05:39:39.767Z,80.17
2019-01-05T05:41:25.286Z,80.23
2019-01-05T05:42:52.753Z,80.14
2019-01-05T05:44:26.054Z,80.27
2019-01-05T05:45:34.175Z,80.34
2019-01-05T05:47:16.227Z,80.33
2019-01-05T05:48:46.762Z,80.08
2019-01-05T05:50:12.080Z,80.20
2019-01-05T05:51:51.261Z,80.55
2019-01-05T05:53:07.634Z,80.71
2019-01-05T05:54:35.587Z,80.84
2019-01-05T05:56:07.581Z,80.85
2019-01-05T05:57:37.461Z,81.26
2019-01-05T05:59:04.153Z,81.13
2019-01-05T06:00:34.438Z,81.31
2019-01-05T06:02:03.193Z,81.54
2019-01-05T06:03:22.929Z,81.80
2019-01-05T06:04:45.603Z,81.73
2019-01-05T06:06:25.920Z,81.80
2019-01-05T06:07:39.638Z,81.55
2019-01-05T06:09:02.439Z,81.59
2019-01-05T06:10:41.683Z,81.54
2019-01-05T06:12:21.036Z,81.39
2019-01-05T06:13:54.321Z,81.59
2019-01-05T06:15:39.568Z,81.75
2019-01-05T06:17:20.246Z,81.30
2019-01-05T06:18:53.377Z,81.00
2019-01-05T06:20:04.154Z,81.27
2019-01-05T06:21:40.331Z,81.52
2019-01-05T06:23:10.519Z,81.96
2019-01-05T06:24:37.365Z,82.03
2019-01-05T06:26:07.619Z,82.23
2019-01-05T06:27:57.196Z,82.51
2019-01-05T06:29:24.125Z,82.96
2019-01-05T06:30:43.641Z,82.79
2019-01-05T06:32:40.457Z,82.70
2019-01-05T06:34:09.298Z,82.08
2019-01-05T06:44:18.938Z,81.65
2019-01-05T06:45:29.562Z,82.48
2019-01-05T06:47:07.564Z,82.45
2019-01-05T06:48:18.507Z,82.68
2019-01-05T06:49:38.313Z,82.80
2019-01-05T06:51:13.114Z,82.82
2019-01-05T06:52:37.502Z,82.67
2019-01-05T06:54:14.027Z,82.44
2019-01-05T06:55:57.946Z,82.54
2019-01-05T06:57:46.152Z,82.43
2019-01-05T06:59:11.794Z,82.41
2019-01-05T07:01:08.734Z,82.70
2019-01-05T07:02:57.081Z,82.64
2019-01-05T07:04:30.311Z,82.82
2019-01-05T07:06:08.957Z,82.54
2019-01-05T07:07:40.749Z,82.63
2019-01-05T07:09:13.863Z,82.60
2019-01-05T07:10:56.223Z,82.32
2019-01-05T07:12:36.893Z,82.43
2019-01-05T07:14:11.823Z,82.67
2019-01-05T07:15:40.922Z,82.77
2019-01-05T07:17:15.733Z,82.66
2019-01-05T07:19:00.779Z,82.43
2019-01-05T07:20:41.385Z,82.58
2019-01-05T07:22:00.898Z,82.28
2019-01-05T07:23:20.443Z,82.16
2019-01-05T07:24:59.726Z,82.70
2019-01-05T07:26:24.168Z,82.86
2019-01-05T07:28:09.616Z,83.06
2019-01-05T07:30:08.413Z,83.10
2019-01-05T07:31:32.403Z,83.11
2019-01-05T07:33:08.279Z,83.19
2019-01-05T07:35:00.765Z,83.17
2019-01-05T07:36:57.627Z,83.29
2019-01-05T07:38:17.163Z,82.92
2019-01-05T07:40:02.613Z,82.73
2019-01-05T07:41:53.924Z,82.74
2019-01-05T07:43:24.176Z,82.67
2019-01-05T07:45:07.359Z,82.59
2019-01-05T07:46:34.499Z,82.99
2019-01-05T07:48:27.048Z,82.77
2019-01-05T07:50:19.701Z,82.75
2019-01-05T07:52:15.160Z,83.17
2019-01-05T07:54:08.086Z,83.06
2019-01-05T07:55:33.748Z,82.98
2019-01-05T07:57:02.311Z,82.63
2019-01-05T07:58:49.238Z,82.99
2019-01-05T08:00:34.726Z,83.42
2019-01-05T08:02:15.359Z,83.47
2019-01-05T08:04:03.081Z,83.55
2019-01-05T08:05:42.350Z,83.78
2019-01-05T08:07:16.442Z,83.74
2019-01-05T08:08:57.118Z,83.72
2019-01-05T08:10:19.801Z,83.90
2019-01-05T08:11:51.564Z,84.18
2019-01-05T08:13:25.025Z,83.94
2019-01-05T08:14:44.575Z,83.98
2019-01-05T08:16:32.812Z,83.77
2019-01-05T08:17:57.162Z,83.77
2019-01-05T08:19:37.724Z,83.68
2019-01-05T08:21:15.620Z,83.46
2019-01-05T08:22:50.165Z,83.20
2019-01-05T08:24:01.128Z,83.18
2019-01-05T08:25:28.087Z,83.26
2019-01-05T08:26:47.569Z,83.33
2019-01-05T08:28:22.028Z,83.48
2019-01-05T08:29:53.958Z,83.44
2019-01-05T08:31:32.830Z,83.76
2019-01-05T08:32:46.354Z,83.69
2019-01-05T08:34:16.261Z,84.26
2019-01-05T08:35:43.101Z,84.90
2019-01-05T08:37:34.125Z,85.12
2019-01-05T08:39:12.183Z,85.14
2019-01-05T08:40:42.676Z,85.21
2019-01-05T08:42:25.178Z,85.35
2019-01-05T08:43:53.932Z,85.14
2019-01-05T08:45:29.003Z,84.69
2019-01-05T08:47:15.397Z,84.67
2019-01-05T08:48:44.471Z,85.11
2019-01-05T08:50:22.358Z,85.10
2019-01-05T08:51:57.221Z,84.75
2019-01-05T08:53:35.653Z,85.08
2019-01-05T08:55:17.870Z,85.19
2019-01-05T08:56:37.209Z,84.92
2019-01-05T08:58:18.054Z,84.59
2019-01-05T09:00:00.332Z,85.02
2019-01-05T09:01:20.343Z,84.92
2019-01-05T09:03:02.564Z,84.62
2019-01-05T09:04:38.797Z,84.56
2019-01-05T09:05:55.673Z,84.42
2019-01-05T09:07:34.973Z,84.40
2019-01-05T09:09:07.798Z,84.02
2019-01-05T09:10:50.492Z,84.09
2019-01-05T09:12:36.975Z,84.03
2019-01-05T09:14:08.562Z,84.39
2019-01-05T09:15:40.072Z,84.42
2019-01-05T09:17:08.818Z,83.47
2019-01-05T09:18:31.664Z,83.68
2019-01-05T09:20:04.281Z,84.14
2019-01-05T09:21:26.918Z,83.70
2019-01-05T09:23:19.511Z,84.05
2019-01-05T09:24:51.539Z,83.95
2019-01-05T09:26:21.665Z,83.89
2019-01-05T09:27:58.319Z,84.14
2019-01-05T09:29:28.256Z,83.69
2019-01-05T09:30:57.197Z,83.88
2019-01-05T09:32:23.890Z,84.00
2019-01-05T09:34:12.153Z,84.11
2019-01-05T09:35:59.046Z,84.36
2019-01-05T09:37:33.659Z,84.39
2019-01-05T09:39:09.838Z,84.12
2019-01-05T09:40:35.885Z,83.96
2019-01-05T09:42:05.936Z,83.73
2019-01-05T09:43:31.639Z,83.44
2019-01-05T09:45:07.955Z,83.40
2019-01-05T09:46:51.667Z,83.83
2019-01-05T09:48:21.934Z,83.92
2019-01-05T09:49:55.238Z,83.59
2019-01-05T09:51:35.482Z,83.34
2019-01-05T09:53:08.850Z,84.14
2019-01-05T09:55:08.079Z,84.87
2019-01-05T09:56:53.432Z,84.80
2019-01-05T09:58:17.713Z,84.74
2019-01-05T09:59:43.690Z,84.83
2019-01-05T10:01:13.409Z,85.02
2019-01-05T10:03:08.647Z,85.03
2019-01-05T10:04:37.607Z,85.42
2019-01-05T10:05:45.757Z,85.19
2019-01-05T10:06:59.454Z,85.03
2019-01-05T10:08:22.346Z,85.06
2019-01-05T10:10:04.592Z,84.92
2019-01-05T10:11:36.229Z,89.67
2019-01-05T10:13:22.953Z,85.36
2019-01-05T10:14:54.324Z,85.09
2019-01-05T10:16:21.221Z,84.68
2019-01-05T10:17:37.541Z,84.55
2019-01-05T10:19:07.690Z,84.64
2019-01-05T10:20:43.976Z,84.68
2019-01-05T10:22:10.086Z,83.78
2019-01-05T10:23:37.075Z,84.02
2019-01-05T10:25:02.611Z,84.13
2019-01-05T10:26:41.089Z,84.24
2019-01-05T10:28:19.041Z,84.01
2019-01-05T10:30:17.448Z,83.95
2019-01-05T10:31:59.782Z,83.74
2019-01-05T10:33:25.233Z,83.75
2019-01-05T10:34:54.230Z,83.83
2019-01-05T10:36:33.449Z,84.02
2019-01-05T10:38:08.873Z,83.71
2019-01-05T10:39:40.726Z,83.80
2019-01-05T10:41:12.859Z,83.67
2019-01-05T10:42:46.463Z,83.63
2019-01-05T10:44:19.366Z,83.80
2019-01-05T10:45:43.354Z,83.63
2019-01-05T10:46:57.317Z,83.12
2019-01-05T10:48:27.862Z,83.15
2019-01-05T10:50:19.652Z,83.28
2019-01-05T10:51:57.202Z,83.38
2019-01-05T10:53:10.954Z,83.56
2019-01-05T10:54:54.334Z,83.49
2019-01-05T10:56:24.424Z,83.67
2019-01-05T10:57:50.067Z,83.46
2019-01-05T10:59:35.089Z,83.70
2019-01-05T11:00:57.626Z,83.23
2019-01-05T11:02:47.343Z,83.12
2019-01-05T11:04:00.603Z,83.17
2019-01-05T11:05:23.560Z,83.04
2019-01-05T11:06:48.958Z,83.15
2019-01-05T11:08:26.780Z,83.47
2019-01-05T11:09:46.673Z,83.47
2019-01-05T11:11:30.426Z,83.29
2019-01-05T11:13:02.199Z,82.73
2019-01-05T11:14:59.419Z,82.80
2019-01-05T11:16:40.270Z,83.21
2019-01-05T11:18:24.120Z,83.62
2019-01-05T11:19:54.733Z,83.10
2019-01-05T11:21:41.563Z,82.82
2019-01-05T11:23:07.354Z,83.05
2019-01-05T11:24:55.799Z,83.17
2019-01-05T11:26:45.301Z,83.13
2019-01-05T11:28:31.243Z,82.27
2019-01-05T11:30:12.834Z,82.37
2019-01-05T11:31:40.143Z,82.70
2019-01-05T11:33:02.681Z,82.73
2019-01-05T11:34:22.498Z,82.72
2019-01-05T11:35:42.265Z,82.82
2019-01-05T11:37:16.969Z,82.80
2019-01-05T11:38:56.273Z,82.22
2019-01-05T11:40:44.875Z,82.33
2019-01-05T11:41:55.428Z,82.20
2019-01-05T11:43:28.896Z,82.20
2019-01-05T11:45:01.958Z,82.35
2019-01-05T11:46:33.600Z,82.43
2019-01-05T11:48:10.868Z,82.12
2019-01-05T11:49:57.474Z,82.33
2019-01-05T11:51:19.711Z,82.38
2019-01-05T11:52:48.407Z,81.96
2019-01-05T11:54:39.255Z,82.01
2019-01-05T11:55:58.869Z,81.68
2019-01-05T11:57:52.109Z,81.91
2019-01-05T11:59:26.827Z,81.66
2019-01-05T12:00:54.232Z,81.52
2019-01-05T12:02:34.958Z,81.83
2019-01-05T12:03:48.939Z,81.72
2019-01-05T12:05:18.759Z,81.64
2019-01-05T12:06:38.394Z,81.97
2019-01-05T12:08:10.041Z,82.07
2019-01-05T12:09:49.310Z,82.17
2019-01-05T12:11:17.474Z,82.13
2019-01-05T12:12:44.482Z,81.95
2019-01-05T12:14:19.070Z,81.82
2019-01-05T12:15:48.980Z,81.86
2019-01-05T12:17:16.483Z,81.80
2019-01-05T12:18:39.326Z,82.12
2019-01-05T12:20:08.363Z,82.21
2019-01-05T12:21:51.421Z,82.21
2019-01-05T12:23:15.855Z,81.82
2019-01-05T12:24:56.362Z,82.00
2019-01-05T12:26:37.375Z,82.19
2019-01-05T12:27:54.000Z,82.61
2019-01-05T12:29:50.987Z,82.65
2019-01-05T12:31:07.400Z,82.55
2019-01-05T12:32:47.847Z,82.57
2019-01-05T12:34:22.595Z,82.27
2019-01-05T12:35:55.910Z,82.14
2019-01-05T12:37:24.533Z,81.95
2019-01-05T12:39:00.718Z,82.14
2019-01-05T12:40:47.660Z,82.44
2019-01-05T12:41:58.351Z,82.44
2019-01-05T12:43:31.535Z,82.38
2019-01-05T12:44:42.230Z,82.61
2019-01-05T12:46:18.242Z,82.77
2019-01-05T12:47:45.372Z,82.51
2019-01-05T12:49:27.171Z,82.37
2019-01-05T12:51:06.547Z,81.98
2019-01-05T12:52:50.151Z,82.44
2019-01-05T12:54:15.938Z,82.50
2019-01-05T12:55:38.559Z,82.07
2019-01-05T12:57:08.745Z,82.29
2019-01-05T12:58:42.174Z,82.18
2019-01-05T13:00:27.504Z,82.17
2019-01-05T13:02:02.304Z,82.00
2019-01-05T13:03:33.905Z,81.82
2019-01-05T13:04:56.494Z,82.21
2019-01-05T13:06:31.308Z,82.34
2019-01-05T13:07:44.995Z,82.08
2019-01-05T13:09:28.755Z,82.21
2019-01-05T13:11:11.257Z,81.82
2019-01-05T13:12:41.319Z,81.82
2019-01-05T13:14:12.911Z,81.83
2019-01-05T13:15:47.608Z,81.78
2019-01-05T13:17:30.702Z,82.10
2019-01-05T13:18:56.487Z,82.09
2019-01-05T13:20:37.290Z,82.15
2019-01-05T13:22:12.143Z,81.92
2019-01-05T13:23:23.179Z,81.64
2019-01-05T13:24:43.001Z,81.34
2019-01-05T13:26:08.570Z,81.63
2019-01-05T13:27:25.061Z,81.95
2019-01-05T13:29:00.918Z,82.10
2019-01-05T13:30:35.640Z,82.03
2019-01-05T13:32:26.878Z,82.01
2019-01-05T13:33:43.703Z,81.82
2019-01-05T13:34:57.304Z,81.66
2019-01-05T13:36:11.269Z,81.90
2019-01-05T13:37:47.014Z,82.11
2019-01-05T13:39:38.317Z,81.96
2019-01-05T13:41:29.566Z,81.90
2019-01-05T13:43:02.511Z,81.52
2019-01-05T13:44:16.342Z,81.52
2019-01-05T13:45:47.701Z,81.36
2019-01-05T13:47:30.859Z,81.50
2019-01-05T13:49:10.574Z,81.55
2019-01-05T13:50:36.298Z,81.41
2019-01-05T13:52:02.190Z,81.52
2019-01-05T13:53:19.425Z,81.48
2019-01-05T13:54:40.346Z,81.67
2019-01-05T13:56:04.778Z,81.62
2019-01-05T13:57:24.889Z,81.70
2019-01-05T13:58:35.910Z,81.92
2019-01-05T13:59:43.503Z,82.23
2019-01-05T14:00:48.572Z,82.51
2019-01-05T14:01:53.636Z,82.89
2019-01-05T14:03:13.686Z,83.11
2019-01-05T14:04:18.756Z,83.02
2019-01-05T14:05:29.407Z,82.88
2019-01-05T14:06:36.965Z,82.74
2019-01-05T14:07:58.102Z,82.58
2019-01-05T14:09:08.866Z,82.25
2019-01-05T14:10:16.691Z,82.29
2019-01-05T14:11:24.519Z,81.91
2019-01-05T14:12:47.483Z,82.12
2019-01-05T14:14:08.875Z,82.35
2019-01-05T14:15:32.009Z,82.15
2019-01-05T14:16:45.777Z,82.05
2019-01-05T14:18:08.453Z,81.85
2019-01-05T14:19:31.550Z,81.84
2019-01-05T14:20:36.624Z,82.06
2019-01-05T14:21:57.508Z,82.01
2019-01-05T14:23:05.461Z,81.98
2019-01-05T14:24:10.530Z,82.15
2019-01-05T14:25:24.668Z,82.34
2019-01-05T14:26:35.298Z,82.63
2019-01-05T14:27:56.309Z,82.58
2019-01-05T14:29:06.786Z,82.80
2019-01-05T14:30:14.729Z,82.68
2019-01-05T14:31:35.496Z,82.58
2019-01-05T14:32:58.130Z,82.37
2019-01-05T14:34:08.619Z,82.03
2019-01-05T14:35:22.601Z,82.16
2019-01-05T14:36:42.266Z,82.47
2019-01-05T14:37:47.331Z,82.49
2019-01-05T14:38:52.457Z,82.56
2019-01-05T14:40:03.115Z,82.69
2019-01-05T14:41:11.223Z,82.88
2019-01-05T14:42:19.100Z,82.71
2019-01-05T14:43:27.143Z,82.70
2019-01-05T14:44:32.205Z,82.90
2019-01-05T14:45:55.358Z,83.14
2019-01-05T14:47:15.679Z,83.33
2019-01-05T14:48:20.746Z,83.09
2019-01-05T14:49:41.938Z,82.97
2019-01-05T14:50:55.557Z,83.02
2019-01-05T14:52:03.055Z,83.07
2019-01-05T14:53:08.111Z,82.93
2019-01-05T14:54:29.163Z,82.84
2019-01-05T14:55:42.666Z,82.89
2019-01-05T14:56:59.507Z,82.85
2019-01-05T14:58:20.712Z,82.63
2019-01-05T14:59:41.911Z,82.54
2019-01-05T15:00:58.438Z,82.53
2019-01-05T15:02:15.264Z,82.63
2019-01-05T15:03:36.258Z,82.76
2019-01-05T15:04:43.985Z,82.89
2019-01-05T15:06:05.267Z,82.59
2019-01-05T15:07:13.049Z,82.69
2019-01-05T15:08:36.017Z,82.53
2019-01-05T15:09:56.717Z,82.43
2019-01-05T15:11:10.803Z,82.58
2019-01-05T15:12:21.797Z,82.87
2019-01-05T15:13:32.737Z,82.93
2019-01-05T15:14:43.629Z,83.03
2019-01-05T15:15:57.833Z,82.97
2019-01-05T15:17:18.932Z,82.81
2019-01-05T15:18:36.162Z,82.73
2019-01-05T15:19:59.197Z,82.47
2019-01-05T15:21:10.348Z,82.57
2019-01-05T15:22:21.233Z,82.68
2019-01-05T15:23:26.312Z,82.72
2019-01-05T15:24:37.192Z,82.82
2019-01-05T15:25:48.203Z,82.74
2019-01-05T15:27:02.155Z,82.82
2019-01-05T15:28:21.971Z,82.85
2019-01-05T15:29:35.793Z,82.97
2019-01-05T15:30:56.637Z,83.03
2019-01-05T15:32:04.751Z,82.63
2019-01-05T15:33:15.453Z,82.65
2019-01-05T15:34:36.590Z,82.85
2019-01-05T15:35:44.212Z,82.91
2019-01-05T15:37:05.068Z,82.55
2019-01-05T15:38:18.955Z,82.68
2019-01-05T15:39:24.113Z,83.03
2019-01-05T15:40:45.313Z,83.27
2019-01-05T15:42:06.602Z,83.33
2019-01-05T15:43:27.842Z,83.14
2019-01-05T15:44:32.916Z,82.88
2019-01-05T15:45:43.700Z,83.10
2019-01-05T15:46:51.295Z,83.13
2019-01-05T15:48:10.939Z,82.93
2019-01-05T15:49:21.830Z,82.85
2019-01-05T15:50:44.837Z,82.78
2019-01-05T15:51:55.720Z,82.53
2019-01-05T15:53:00.805Z,82.55
2019-01-05T15:54:20.843Z,82.79
2019-01-05T15:55:31.669Z,82.86
2019-01-05T15:56:52.602Z,82.87
2019-01-05T15:58:00.238Z,82.80
2019-01-05T15:59:05.369Z,82.52
2019-01-05T16:00:27.080Z,82.42
2019-01-05T16:01:34.622Z,82.55
2019-01-05T16:02:57.999Z,82.44
2019-01-05T16:04:05.879Z,82.62
2019-01-05T16:05:27.118Z,82.74
2019-01-05T16:06:48.199Z,82.58
2019-01-05T16:08:08.026Z,82.58
2019-01-05T16:09:29.423Z,82.24
2019-01-05T16:10:50.547Z,82.27
2019-01-05T16:11:55.614Z,82.36
2019-01-05T16:13:18.701Z,82.87
2019-01-05T16:14:29.766Z,82.94
2019-01-05T16:15:37.750Z,82.55
2019-01-05T16:16:48.560Z,82.34
2019-01-05T16:18:05.624Z,82.18
2019-01-05T16:19:25.422Z,82.09
2019-01-05T16:20:30.457Z,82.11
2019-01-05T16:21:47.189Z,81.93
2019-01-05T16:22:52.275Z,82.02
2019-01-05T16:24:13.212Z,82.02
2019-01-05T16:25:21.099Z,82.08
2019-01-05T16:26:42.240Z,82.09
2019-01-05T16:28:05.086Z,82.14
2019-01-05T16:29:13.050Z,82.13
2019-01-05T16:30:34.469Z,82.23
2019-01-05T16:31:48.103Z,82.04
2019-01-05T16:32:56.050Z,82.08
2019-01-05T16:34:16.781Z,82.14
2019-01-05T16:35:39.879Z,82.22
2019-01-05T16:36:50.828Z,82.24
2019-01-05T16:38:13.527Z,82.22
2019-01-05T16:39:18.596Z,82.17
2019-01-05T16:40:26.521Z,81.99
2019-01-05T16:41:40.475Z,82.09
2019-01-05T16:42:57.628Z,82.32
2019-01-05T16:44:05.266Z,82.23
2019-01-05T16:45:19.085Z,81.99
2019-01-05T16:46:24.185Z,82.04
2019-01-05T16:47:32.150Z,81.96
2019-01-05T16:48:45.946Z,81.72
2019-01-05T16:49:53.700Z,81.74
2019-01-05T16:50:58.978Z,81.74
2019-01-05T16:52:09.562Z,81.79
2019-01-05T16:53:30.304Z,82.07
2019-01-05T16:54:35.368Z,82.34
2019-01-05T16:55:49.114Z,82.26
2019-01-05T16:57:10.271Z,82.11
2019-01-05T16:58:31.429Z,82.03
2019-01-05T16:59:51.639Z,82.11
2019-01-05T17:01:12.813Z,82.00
2019-01-05T17:02:20.685Z,82.15
2019-01-05T17:03:31.656Z,82.22
2019-01-05T17:04:52.555Z,82.33
2019-01-05T17:06:06.790Z,82.49
2019-01-05T17:07:20.931Z,82.60
2019-01-05T17:08:28.846Z,82.70
2019-01-05T17:09:36.873Z,82.53
2019-01-05T17:10:57.920Z,82.44
2019-01-05T17:12:08.745Z,82.66
2019-01-05T17:13:13.992Z,82.82
2019-01-05T17:14:30.667Z,82.79
2019-01-05T17:15:38.580Z,82.79
2019-01-05T17:16:46.551Z,82.91
2019-01-05T17:18:00.407Z,82.91
2019-01-05T17:19:05.471Z,82.68
2019-01-05T17:20:13.384Z,82.67
2019-01-05T17:21:21.348Z,82.61
2019-01-05T17:22:34.930Z,82.25
2019-01-05T17:23:48.824Z,82.06
2019-01-05T17:24:53.944Z,81.89
2019-01-05T17:26:14.979Z,82.00
2019-01-05T17:27:36.320Z,82.12
2019-01-05T17:28:49.814Z,82.37
2019-01-05T17:29:54.954Z,82.49
2019-01-05T17:31:00.055Z,82.64
2019-01-05T17:32:05.132Z,82.68
2019-01-05T17:33:26.339Z,82.83
2019-01-05T17:34:47.645Z,82.74
2019-01-05T17:36:01.614Z,82.54
2019-01-05T17:37:22.746Z,82.56
2019-01-05T17:38:43.932Z,82.45
2019-01-05T17:39:49.022Z,82.60
2019-01-05T17:40:59.928Z,82.64
2019-01-05T17:42:07.740Z,82.82
2019-01-05T17:43:27.655Z,82.79
2019-01-05T17:44:47.681Z,82.87
2019-01-05T17:45:55.414Z,82.74
2019-01-05T17:47:09.211Z,82.89
2019-01-05T17:48:19.976Z,82.93
2019-01-05T17:49:25.059Z,82.81
2019-01-05T17:50:41.807Z,82.83
2019-01-05T17:51:52.479Z,82.73
2019-01-05T17:53:03.397Z,82.71
2019-01-05T17:54:20.119Z,82.94
2019-01-05T17:55:30.823Z,82.99
2019-01-05T17:56:38.705Z,83.01
2019-01-05T17:57:52.750Z,82.58
2019-01-05T17:59:13.958Z,82.35
2019-01-05T18:00:35.049Z,82.17
2019-01-05T18:01:40.135Z,82.41
2019-01-05T18:02:48.054Z,82.05
2019-01-05T18:04:11.137Z,82.25
2019-01-05T18:05:22.064Z,82.54
2019-01-05T18:06:43.208Z,82.41
2019-01-05T18:08:04.345Z,82.19
2019-01-05T18:09:12.114Z,82.27
2019-01-05T18:10:22.631Z,82.35
2019-01-05T18:11:45.694Z,82.58
2019-01-05T18:12:56.461Z,82.63
2019-01-05T18:14:17.628Z,82.31
2019-01-05T18:15:38.819Z,82.38
2019-01-05T18:16:46.292Z,82.26
2019-01-05T18:17:57.022Z,82.14
2019-01-05T18:19:10.998Z,82.36
2019-01-05T18:20:33.924Z,82.55
2019-01-05T18:21:37.352Z,82.74